createdAt,value
2019-04-29T00:00:14.276Z,21.70
2019-04-29T00:02:42.919Z,19.83
2019-04-29T00:05:11.971Z,21.17
2019-04-29T00:07:43.764Z,22.33
2019-04-29T00:10:16.325Z,20.57
2019-04-29T00:12:45.241Z,23.30
2019-04-29T00:15:17.294Z,23.47
2019-04-29T00:17:53.311Z,20.07
2019-04-29T00:20:30.109Z,22.17
2019-04-29T00:22:59.509Z,22.10
2019-04-29T00:25:30.103Z,21.33
2019-04-29T00:27:59.819Z,22.00
2019-04-29T00:30:29.234Z,22.90
2019-04-29T00:32:57.862Z,22.30
2019-04-29T00:35:26.640Z,24.10
2019-04-29T00:38:02.289Z,21.77
2019-04-29T00:40:39.140Z,22.10
2019-04-29T00:43:12.969Z,22.60
2019-04-29T00:45:43.252Z,24.37
2019-04-29T00:48:12.010Z,29.07
2019-04-29T00:50:40.775Z,29.53
2019-04-29T00:53:11.009Z,31.03
2019-04-29T00:55:40.925Z,30.57
2019-04-29T00:58:09.944Z,32.73
2019-04-29T01:00:41.665Z,32.03
2019-04-29T01:03:13.315Z,32.43
2019-04-29T01:05:42.607Z,32.67
2019-04-29T01:08:11.396Z,29.53
2019-04-29T01:10:41.216Z,29.93
2019-04-29T01:13:11.753Z,28.63
2019-04-29T01:15:40.333Z,28.97
2019-04-29T01:18:10.383Z,30.60
2019-04-29T01:20:39.061Z,30.40
2019-04-29T01:23:10.467Z,32.43
2019-04-29T01:25:40.897Z,30.80
2019-04-29T01:28:21.458Z,31.20
2019-04-29T01:30:55.954Z,31.03
2019-04-29T01:33:27.902Z,29.20
2019-04-29T01:36:16.013Z,31.00
2019-04-29T01:38:48.599Z,30.33
2019-04-29T01:41:25.980Z,32.30
2019-04-29T01:44:01.864Z,31.87
2019-04-29T01:46:33.902Z,31.30
2019-04-29T01:49:02.713Z,30.93
2019-04-29T01:51:32.557Z,31.47
2019-04-29T01:54:01.146Z,29.63
2019-04-29T01:56:32.089Z,30.93
2019-04-29T01:59:00.931Z,30.10
2019-04-29T02:01:29.659Z,28.07
2019-04-29T02:03:58.264Z,29.03
2019-04-29T02:06:28.074Z,29.73
2019-04-29T02:08:58.012Z,28.80
2019-04-29T02:11:26.899Z,29.47
2019-04-29T02:13:55.626Z,27.73
2019-04-29T02:16:26.013Z,25.93
2019-04-29T02:18:56.691Z,25.50
2019-04-29T02:21:25.376Z,24.57
2019-04-29T02:23:59.864Z,24.17
2019-04-29T02:26:30.005Z,23.40
2019-04-29T02:28:58.855Z,23.60
2019-04-29T02:31:38.396Z,22.73
2019-04-29T02:34:07.690Z,24.93
2019-04-29T02:36:42.748Z,23.87
2019-04-29T02:39:22.113Z,23.47
2019-04-29T02:42:08.389Z,22.93
2019-04-29T02:44:40.638Z,24.60
2019-04-29T02:47:11.291Z,25.07
2019-04-29T02:49:40.207Z,24.10
2019-04-29T02:52:10.178Z,24.90
2019-04-29T02:54:43.951Z,23.60
2019-04-29T02:57:17.600Z,24.60
2019-04-29T03:00:00.164Z,24.47
2019-04-29T03:02:30.410Z,48.67
2019-04-29T03:05:19.493Z,62.80
2019-04-29T03:07:49.872Z,56.13
2019-04-29T03:10:21.903Z,55.53
2019-04-29T03:12:50.608Z,31.93
2019-04-29T03:15:28.309Z,29.57
2019-04-29T03:17:59.962Z,51.60
2019-04-29T03:20:31.887Z,33.57
2019-04-29T03:23:14.214Z,27.63
2019-04-29T03:25:49.642Z,24.30
2019-04-29T03:28:22.415Z,25.57
2019-04-29T03:30:53.668Z,24.27
2019-04-29T03:33:22.449Z,23.50
2019-04-29T03:35:52.969Z,25.40
2019-04-29T03:38:21.683Z,24.13
2019-04-29T03:40:50.454Z,24.50
2019-04-29T03:43:19.261Z,24.67
2019-04-29T03:45:48.111Z,25.17
2019-04-29T03:48:16.849Z,24.03
2019-04-29T03:50:47.357Z,27.40
2019-04-29T03:53:16.072Z,25.00
2019-04-29T03:55:47.181Z,25.30
2019-04-29T03:58:16.329Z,25.73
2019-04-29T04:00:46.707Z,24.80
2019-04-29T04:03:27.455Z,24.70
2019-04-29T04:05:57.716Z,25.60
2019-04-29T04:08:38.959Z,24.40
2019-04-29T04:11:07.927Z,25.27
2019-04-29T04:13:38.528Z,24.00
2019-04-29T04:16:08.749Z,26.17
2019-04-29T04:18:40.679Z,23.83
2019-04-29T04:21:09.435Z,25.77
2019-04-29T04:23:41.151Z,25.87
2019-04-29T04:26:10.673Z,24.27
2019-04-29T04:28:40.738Z,25.33
2019-04-29T04:31:10.954Z,24.23
2019-04-29T04:33:41.517Z,25.37
2019-04-29T04:36:10.710Z,25.13
2019-04-29T04:38:39.380Z,25.93
2019-04-29T04:41:11.250Z,25.07
2019-04-29T04:43:39.930Z,24.50
2019-04-29T04:46:10.429Z,26.93
2019-04-29T04:48:42.117Z,25.97
2019-04-29T04:51:11.025Z,25.30
2019-04-29T04:53:39.816Z,25.80
2019-04-29T04:56:08.536Z,26.53
2019-04-29T04:58:38.621Z,24.87
2019-04-29T05:01:07.437Z,24.70
2019-04-29T05:03:36.174Z,24.83
2019-04-29T05:06:06.480Z,24.83
2019-04-29T05:08:36.110Z,24.87
2019-04-29T05:11:05.328Z,25.77
2019-04-29T05:13:35.759Z,26.23
2019-04-29T05:16:05.623Z,26.03
2019-04-29T05:18:34.803Z,27.53
2019-04-29T05:21:07.876Z,24.53
2019-04-29T05:23:37.827Z,24.67
2019-04-29T05:26:06.651Z,26.20
2019-04-29T05:28:41.282Z,26.00
2019-04-29T05:31:10.227Z,25.70
2019-04-29T05:33:43.383Z,25.40
2019-04-29T05:36:13.514Z,24.27
2019-04-29T05:38:45.187Z,25.10
2019-04-29T05:41:14.041Z,26.30
2019-04-29T05:43:45.254Z,25.87
2019-04-29T05:46:21.370Z,26.30
2019-04-29T05:48:49.110Z,24.17
2019-04-29T05:51:34.671Z,25.50
2019-04-29T05:54:07.862Z,26.13
2019-04-29T05:56:42.186Z,25.87
2019-04-29T05:59:14.015Z,26.37
2019-04-29T06:01:47.279Z,25.80
2019-04-29T06:04:19.898Z,25.00
2019-04-29T06:07:06.703Z,26.07
2019-04-29T06:09:35.686Z,25.93
2019-04-29T06:12:05.799Z,26.27
2019-04-29T06:14:37.147Z,27.73
2019-04-29T06:17:07.815Z,27.40
2019-04-29T06:19:39.323Z,26.03
2019-04-29T06:22:10.173Z,24.77
2019-04-29T06:24:42.247Z,24.33
2019-04-29T06:27:13.688Z,24.13
2019-04-29T06:30:02.879Z,24.50
2019-04-29T06:32:29.800Z,24.03
2019-04-29T06:35:00.643Z,23.60
2019-04-29T06:37:30.012Z,22.77
2019-04-29T06:40:02.342Z,22.87
2019-04-29T06:42:37.661Z,23.07
2019-04-29T06:45:08.356Z,26.53
2019-04-29T06:47:40.678Z,24.17
2019-04-29T06:50:14.861Z,23.97
2019-04-29T06:52:52.174Z,34.67
2019-04-29T06:55:21.901Z,35.67
2019-04-29T06:57:52.493Z,22.83
2019-04-29T07:00:28.815Z,22.97
2019-04-29T07:03:00.263Z,23.90
2019-04-29T07:05:29.869Z,23.53
2019-04-29T07:08:01.204Z,23.63
2019-04-29T07:10:30.405Z,23.37
2019-04-29T07:12:59.982Z,23.23
2019-04-29T07:15:31.127Z,22.47
2019-04-29T07:18:00.172Z,23.30
2019-04-29T07:20:32.563Z,23.37
2019-04-29T07:23:03.920Z,23.00
2019-04-29T07:25:37.722Z,31.80
2019-04-29T07:28:07.327Z,23.50
2019-04-29T07:30:59.233Z,26.73
2019-04-29T07:33:09.856Z,29.60
2019-04-29T07:35:43.144Z,22.87
2019-04-29T07:38:11.906Z,22.37
2019-04-29T07:40:43.370Z,21.40
2019-04-29T07:43:14.004Z,23.37
2019-04-29T07:45:58.922Z,23.60
2019-04-29T07:48:27.030Z,23.57
2019-04-29T07:50:59.412Z,22.70
2019-04-29T07:53:35.203Z,21.23
2019-04-29T07:56:05.799Z,20.27
2019-04-29T07:58:31.992Z,21.10
2019-04-29T08:01:10.830Z,22.07
2019-04-29T08:03:39.597Z,20.57
2019-04-29T08:06:10.062Z,21.47
2019-04-29T08:08:40.260Z,19.63
2019-04-29T08:11:11.691Z,25.77
2019-04-29T08:13:42.804Z,32.10
2019-04-29T08:16:16.714Z,20.93
2019-04-29T08:18:43.375Z,19.80
2019-04-29T08:21:16.730Z,20.47
2019-04-29T08:23:51.333Z,20.50
2019-04-29T08:26:20.606Z,20.33
2019-04-29T08:28:52.983Z,19.77
2019-04-29T08:31:22.246Z,19.17
2019-04-29T08:33:51.303Z,18.90
2019-04-29T08:36:22.418Z,18.67
2019-04-29T08:38:53.740Z,19.30
2019-04-29T08:41:28.491Z,19.53
2019-04-29T08:44:16.351Z,18.97
2019-04-29T08:46:52.035Z,19.07
2019-04-29T08:49:26.023Z,17.90
2019-04-29T08:51:56.187Z,19.27
2019-04-29T08:54:25.427Z,20.27
2019-04-29T08:57:02.900Z,19.73
2019-04-29T08:59:27.211Z,18.83
2019-04-29T09:01:58.255Z,17.93
2019-04-29T09:04:33.256Z,19.53
2019-04-29T09:07:12.464Z,17.27
2019-04-29T09:09:44.633Z,21.80
2019-04-29T09:12:19.265Z,36.23
2019-04-29T09:14:47.135Z,18.30
2019-04-29T09:17:20.545Z,18.23
2019-04-29T09:19:50.490Z,18.13
2019-04-29T09:22:27.058Z,18.23
2019-04-29T09:25:13.002Z,18.23
2019-04-29T09:27:47.691Z,18.50
2019-04-29T09:30:17.779Z,17.43
2019-04-29T09:32:47.424Z,19.10
2019-04-29T09:35:20.098Z,17.63
2019-04-29T09:37:58.393Z,16.87
2019-04-29T09:40:30.063Z,18.03
2019-04-29T09:43:14.546Z,35.07
2019-04-29T09:45:47.403Z,27.43
2019-04-29T09:48:27.786Z,17.23
2019-04-29T09:50:58.914Z,17.20
2019-04-29T09:53:32.004Z,15.57
2019-04-29T09:56:03.633Z,16.50
2019-04-29T09:58:33.046Z,16.73
2019-04-29T10:01:20.921Z,16.80
2019-04-29T10:03:57.193Z,16.57
2019-04-29T10:06:37.258Z,16.30
2019-04-29T10:09:13.151Z,16.07
2019-04-29T10:11:46.853Z,16.60
2019-04-29T10:14:20.216Z,14.97
2019-04-29T10:16:55.466Z,16.87
2019-04-29T10:19:38.656Z,16.23
2019-04-29T10:22:08.228Z,17.00
2019-04-29T10:24:37.637Z,28.17
2019-04-29T10:27:11.024Z,35.17
2019-04-29T10:29:55.257Z,16.70
2019-04-29T10:32:30.717Z,17.93
2019-04-29T10:35:03.710Z,16.40
2019-04-29T10:40:33.679Z,17.53
2019-04-29T10:46:23.787Z,17.13
2019-04-29T10:48:59.206Z,17.70
2019-04-29T10:51:31.393Z,17.00
2019-04-29T10:54:06.376Z,20.90
2019-04-29T10:56:39.301Z,16.20
2019-04-29T10:59:11.164Z,17.03
2019-04-29T11:02:09.153Z,15.63
2019-04-29T11:04:36.329Z,16.77
2019-04-29T11:07:27.547Z,16.67
2019-04-29T11:10:00.064Z,16.73
2019-04-29T11:12:30.918Z,15.40
2019-04-29T11:15:04.260Z,16.57
2019-04-29T11:17:39.822Z,15.50
2019-04-29T11:20:15.739Z,16.27
2019-04-29T11:22:44.831Z,15.73
2019-04-29T11:25:19.124Z,15.80
2019-04-29T11:27:51.326Z,15.53
2019-04-29T11:30:25.361Z,16.00
2019-04-29T11:33:09.574Z,26.93
2019-04-29T11:35:44.492Z,28.57
2019-04-29T11:38:16.230Z,24.20
2019-04-29T11:40:46.244Z,14.37
2019-04-29T11:43:18.832Z,15.13
2019-04-29T11:45:56.062Z,29.70
2019-04-29T11:48:26.940Z,21.57
2019-04-29T11:51:00.135Z,16.43
2019-04-29T11:53:29.917Z,16.10
2019-04-29T11:56:00.290Z,20.73
2019-04-29T11:58:34.174Z,18.80
2019-04-29T12:01:08.439Z,16.20
2019-04-29T12:03:40.044Z,16.70
2019-04-29T12:06:16.227Z,15.73
2019-04-29T12:08:53.029Z,15.47
2019-04-29T12:11:20.116Z,15.67
2019-04-29T12:13:52.106Z,15.30
2019-04-29T12:16:29.853Z,15.90
2019-04-29T12:19:17.112Z,15.40
2019-04-29T12:21:47.694Z,15.63
2019-04-29T12:24:16.767Z,15.30
2019-04-29T12:26:48.162Z,16.40
2019-04-29T12:29:19.484Z,14.73
2019-04-29T12:31:57.103Z,13.90
2019-04-29T12:34:45.026Z,13.93
2019-04-29T12:37:25.687Z,14.03
2019-04-29T12:40:14.467Z,12.67
2019-04-29T12:43:00.034Z,14.80
2019-04-29T12:45:40.490Z,13.90
2019-04-29T12:48:23.459Z,13.53
2019-04-29T12:50:43.844Z,13.20
2019-04-29T12:53:12.761Z,12.23
2019-04-29T12:55:49.011Z,13.23
2019-04-29T12:58:19.438Z,13.07
2019-04-29T13:01:00.940Z,12.67
2019-04-29T13:03:39.700Z,12.27
2019-04-29T13:06:11.531Z,12.27
2019-04-29T13:08:47.999Z,12.80
2019-04-29T13:11:22.357Z,12.90
2019-04-29T13:14:01.789Z,13.03
2019-04-29T13:16:31.744Z,12.10
2019-04-29T13:19:11.404Z,12.07
2019-04-29T13:21:39.496Z,12.20
2019-04-29T13:24:23.556Z,13.43
2019-04-29T13:26:47.399Z,13.37
2019-04-29T13:29:26.994Z,13.77
2019-04-29T13:31:51.488Z,12.77
2019-04-29T13:34:30.997Z,12.70
2019-04-29T13:37:06.622Z,12.10
2019-04-29T13:39:39.005Z,13.30
2019-04-29T13:42:09.061Z,13.30
2019-04-29T13:47:35.291Z,12.33
2019-04-29T13:50:38.196Z,12.67
2019-04-29T13:52:57.803Z,13.10
2019-04-29T13:55:47.260Z,12.80
2019-04-29T13:58:00.304Z,12.87
2019-04-29T14:00:32.619Z,12.10
2019-04-29T14:03:07.206Z,13.53
2019-04-29T14:05:37.798Z,11.63
2019-04-29T14:08:06.778Z,12.87
2019-04-29T14:10:37.204Z,12.30
2019-04-29T14:13:15.143Z,11.97
2019-04-29T14:15:40.478Z,11.57
2019-04-29T14:18:11.604Z,12.30
2019-04-29T14:20:40.289Z,12.60
2019-04-29T14:23:10.286Z,12.63
2019-04-29T14:25:42.187Z,13.43
2019-04-29T14:28:13.115Z,13.13
2019-04-29T14:30:43.750Z,12.50
2019-04-29T14:33:12.492Z,11.87
2019-04-29T14:35:43.725Z,10.53
2019-04-29T14:38:20.103Z,10.83
2019-04-29T14:40:49.219Z,10.77
2019-04-29T14:43:39.731Z,9.70
2019-04-29T14:46:19.570Z,8.87
2019-04-29T14:49:04.217Z,8.60
2019-04-29T14:51:36.909Z,8.67
2019-04-29T14:54:08.698Z,8.20
2019-04-29T14:56:40.082Z,7.77
2019-04-29T14:59:10.001Z,8.30
2019-04-29T15:01:40.329Z,7.53
2019-04-29T15:04:18.612Z,7.80
2019-04-29T15:06:42.060Z,7.57
2019-04-29T15:09:17.695Z,7.67
2019-04-29T15:11:47.595Z,7.17
2019-04-29T15:14:31.994Z,8.67
2019-04-29T15:17:16.002Z,7.17
2019-04-29T15:19:55.392Z,7.33
2019-04-29T15:22:30.591Z,7.80
2019-04-29T15:24:59.438Z,8.80
2019-04-29T15:27:29.314Z,8.80
2019-04-29T15:29:59.250Z,8.83
2019-04-29T15:32:29.401Z,8.33
2019-04-29T15:35:05.210Z,9.40
2019-04-29T15:37:36.407Z,8.53
2019-04-29T15:40:08.262Z,9.50
2019-04-29T15:42:43.255Z,9.63
2019-04-29T15:45:09.735Z,10.63
2019-04-29T15:47:41.702Z,9.17
2019-04-29T15:50:18.720Z,9.20
2019-04-29T15:52:40.583Z,10.83
2019-04-29T15:55:10.603Z,9.33
2019-04-29T15:57:49.728Z,9.60
2019-04-29T16:00:21.833Z,11.77
2019-04-29T16:02:49.989Z,9.83
2019-04-29T16:05:20.301Z,10.40
2019-04-29T16:07:57.262Z,9.93
2019-04-29T16:10:31.129Z,10.00
2019-04-29T16:13:12.555Z,10.30
2019-04-29T16:15:42.005Z,11.03
2019-04-29T16:18:14.725Z,11.40
2019-04-29T16:20:53.296Z,10.67
2019-04-29T16:23:16.375Z,10.37
2019-04-29T16:28:18.279Z,10.87
2019-04-29T16:30:48.659Z,11.13
2019-04-29T16:33:19.131Z,11.43
2019-04-29T16:35:47.799Z,11.60
2019-04-29T16:38:18.085Z,11.13
2019-04-29T16:40:56.555Z,11.73
2019-04-29T16:43:27.675Z,11.87
2019-04-29T16:46:01.679Z,11.03
2019-04-29T16:48:33.551Z,11.47
2019-04-29T16:51:14.605Z,11.90
2019-04-29T16:53:43.534Z,11.03
2019-04-29T16:56:16.028Z,11.30
2019-04-29T16:58:45.129Z,12.33
2019-04-29T17:01:18.817Z,12.60
2019-04-29T17:03:55.488Z,13.63
2019-04-29T17:06:26.199Z,12.07
2019-04-29T17:09:05.125Z,13.17
2019-04-29T17:11:40.089Z,13.90
2019-04-29T17:14:13.029Z,15.20
2019-04-29T17:16:42.367Z,15.27
2019-04-29T17:19:15.804Z,13.77
2019-04-29T17:21:47.728Z,12.63
2019-04-29T17:24:36.183Z,12.53
2019-04-29T17:27:26.528Z,15.20
2019-04-29T17:30:11.153Z,14.70
2019-04-29T17:32:57.059Z,16.10
2019-04-29T17:35:14.119Z,10.47
2019-04-29T17:35:27.935Z,15.83
2019-04-29T17:38:06.902Z,15.27
2019-04-29T17:40:50.499Z,14.33
2019-04-29T17:43:38.191Z,14.73
2019-04-29T17:46:24.062Z,15.50
2019-04-29T17:48:55.670Z,14.73
2019-04-29T17:51:34.047Z,15.03
2019-04-29T17:54:07.217Z,14.93
2019-04-29T17:56:39.179Z,14.33
2019-04-29T17:59:15.861Z,15.03
2019-04-29T18:02:02.662Z,15.13
2019-04-29T18:04:49.620Z,15.73
2019-04-29T18:07:20.812Z,15.20
2019-04-29T18:10:05.057Z,14.90
2019-04-29T18:12:40.948Z,16.17
2019-04-29T18:15:10.668Z,16.23
2019-04-29T18:17:40.430Z,15.13
2019-04-29T18:20:30.752Z,15.87
2019-04-29T18:22:59.195Z,16.13
2019-04-29T18:25:39.823Z,16.63
2019-04-29T18:28:09.763Z,16.10
2019-04-29T18:30:44.644Z,16.07
2019-04-29T18:33:15.098Z,17.40
2019-04-29T18:35:50.748Z,15.37
2019-04-29T18:38:19.463Z,16.27
2019-04-29T18:40:49.571Z,16.57
2019-04-29T18:43:22.979Z,16.17
2019-04-29T18:45:56.263Z,17.00
2019-04-29T18:48:22.922Z,15.63
2019-04-29T18:50:52.172Z,17.20
2019-04-29T18:53:22.079Z,16.57
2019-04-29T18:55:58.005Z,16.90
2019-04-29T18:58:27.843Z,15.93
2019-04-29T19:00:57.987Z,16.83
2019-04-29T19:03:36.312Z,17.80
2019-04-29T19:06:10.042Z,17.63
2019-04-29T19:08:39.910Z,19.00
2019-04-29T19:11:12.353Z,17.67
2019-04-29T19:13:43.526Z,16.70
2019-04-29T19:16:21.578Z,17.80
2019-04-29T19:18:52.033Z,17.83
2019-04-29T19:21:30.489Z,17.57
2019-04-29T19:23:57.417Z,18.30
2019-04-29T19:26:27.653Z,17.37
2019-04-29T19:29:01.234Z,16.53
2019-04-29T19:31:29.850Z,17.30
2019-04-29T19:34:00.436Z,18.33
2019-04-29T19:36:32.539Z,18.83
2019-04-29T19:39:08.246Z,18.30
2019-04-29T19:41:38.711Z,19.63
2019-04-29T19:44:08.070Z,18.83
2019-04-29T19:46:41.285Z,18.93
2019-04-29T19:49:10.263Z,19.47
2019-04-29T19:51:43.583Z,17.77
2019-04-29T19:54:16.972Z,19.90
2019-04-29T19:56:55.562Z,18.83
2019-04-29T19:59:21.684Z,19.07
2019-04-29T20:01:56.318Z,19.60
2019-04-29T20:04:33.511Z,19.80
2019-04-29T20:07:08.746Z,19.90
2019-04-29T20:09:34.311Z,19.97
2019-04-29T20:14:59.744Z,21.10
2019-04-29T20:17:30.999Z,20.97
2019-04-29T20:20:12.126Z,21.43
2019-04-29T20:22:43.506Z,20.17
2019-04-29T20:25:12.398Z,21.80
2019-04-29T20:27:43.470Z,22.23
2019-04-29T20:30:17.594Z,22.50
2019-04-29T20:32:46.046Z,21.60
2019-04-29T20:35:18.296Z,22.17
2019-04-29T20:37:55.640Z,23.30
2019-04-29T20:40:23.241Z,22.53
2019-04-29T20:42:54.333Z,22.07
2019-04-29T20:45:27.213Z,23.00
2019-04-29T20:47:53.563Z,22.27
2019-04-29T20:50:27.581Z,22.33
2019-04-29T20:53:02.269Z,23.93
2019-04-29T20:55:31.983Z,22.80
2019-04-29T20:58:03.706Z,22.77
2019-04-29T21:00:37.277Z,24.37
2019-04-29T21:03:09.325Z,23.07
2019-04-29T21:05:48.281Z,23.73
2019-04-29T21:08:16.523Z,22.77
2019-04-29T21:10:46.717Z,21.80
2019-04-29T21:13:20.314Z,21.20
2019-04-29T21:15:53.767Z,21.30
2019-04-29T21:18:22.831Z,20.83
2019-04-29T21:20:55.042Z,20.43
2019-04-29T21:23:24.922Z,21.50
2019-04-29T21:25:55.989Z,20.40
2019-04-29T21:28:25.377Z,21.20
2019-04-29T21:30:55.956Z,20.93
2019-04-29T21:33:25.537Z,21.20
2019-04-29T21:36:15.501Z,22.20
2019-04-29T21:39:01.448Z,20.30
2019-04-29T21:41:38.794Z,21.07
2019-04-29T21:44:06.473Z,19.90
2019-04-29T21:46:37.360Z,20.80
2019-04-29T21:49:11.457Z,20.43
2019-04-29T21:51:41.721Z,20.43
2019-04-29T21:54:14.205Z,21.53
2019-04-29T21:56:47.819Z,19.17
2019-04-29T21:59:15.772Z,19.47
2019-04-29T22:01:46.090Z,18.10
2019-04-29T22:04:15.175Z,19.10
2019-04-29T22:06:45.850Z,20.83
2019-04-29T22:09:17.551Z,20.53
2019-04-29T22:11:46.984Z,21.23
2019-04-29T22:14:16.996Z,22.27
2019-04-29T22:16:47.605Z,20.77
2019-04-29T22:19:17.643Z,20.07
2019-04-29T22:21:52.769Z,21.37
2019-04-29T22:24:26.280Z,19.13
2019-04-29T22:26:56.474Z,20.20
2019-04-29T22:29:27.353Z,19.03
2019-04-29T22:31:57.763Z,20.93
2019-04-29T22:34:30.837Z,19.77
2019-04-29T22:37:05.374Z,19.87
2019-04-29T22:39:35.532Z,18.50
2019-04-29T22:42:08.622Z,19.03
2019-04-29T22:44:40.199Z,19.13
2019-04-29T22:47:10.950Z,20.83
2019-04-29T22:49:41.114Z,19.37
2019-04-29T22:52:09.731Z,19.43
2019-04-29T22:54:39.030Z,18.43
2019-04-29T22:57:07.870Z,19.97
2019-04-29T22:59:39.315Z,19.80
2019-04-29T23:02:12.917Z,19.37
2019-04-29T23:04:41.630Z,20.47
2019-04-29T23:07:17.628Z,19.90
2019-04-29T23:09:47.987Z,22.40
2019-04-29T23:12:18.580Z,22.17
2019-04-29T23:14:51.334Z,22.53
2019-04-29T23:17:22.556Z,22.67
2019-04-29T23:19:53.330Z,24.57
2019-04-29T23:22:26.315Z,24.97
2019-04-29T23:25:05.565Z,24.33
2019-04-29T23:27:36.045Z,24.03
2019-04-29T23:30:13.536Z,24.30
2019-04-29T23:32:44.269Z,22.37
2019-04-29T23:35:12.471Z,24.03
2019-04-29T23:37:42.452Z,25.07
2019-04-29T23:40:11.395Z,23.73
2019-04-29T23:42:43.653Z,23.53
2019-04-29T23:45:14.576Z,23.67
2019-04-29T23:47:49.284Z,23.17
2019-04-29T23:50:20.289Z,23.53
2019-04-29T23:52:51.954Z,24.87
2019-04-29T23:55:24.938Z,24.47
2019-04-29T23:57:55.531Z,25.20
